NCAR-RAP Real-Time Weather Data

Output produced by METARs form (21 May 2019  11:41 UTC)
found at http://weather.rap.ucar.edu/surface/
 
RJCC 211130Z 16007KT 2000 BR FEW002 BKN003 BKN005 12/11 Q1003 RMK 2ST002 5ST003 7ST005 A2962
RJCC 211119Z 16009KT 1600 BR SCT001 BKN002 12/11 Q1002 RMK 4ST001 7ST002 A2961
RJCC 211100Z 16010KT 1200 R19R/P2000N R19L/P2000N BR VV001 11/11 Q1002 RMK A2960
RJCC 211038Z 16008KT 1400 R19R/P2000N R19L/P2000N BR SCT001 BKN002 11/11 Q1002 RMK 4ST001 7ST002 A2960
RJCC 211030Z 15008KT 2300 BR FEW001 SCT002 BKN003 11/11 Q1002 RMK 2ST001 4ST002 7ST003 A2960
RJCC 211023Z 15007KT 3100 BR FEW001 SCT002 BKN003 11/11 Q1002 RMK 2ST001 4ST002 7ST003 A2960
RJCC 211000Z 15006KT 4000 BR FEW001 SCT002 BKN003 12/11 Q1001 RMK 2ST001 4ST002 7ST003 A2958 2000W
RJCC 210930Z 15007KT 110V180 4000 -SHRA BR FEW001 SCT002 BKN003 12/11 Q1001 RMK 2ST001 4ST002 7ST003 A2958 2000W
RJCC 210900Z 14010KT 5000 -SHRA BR FEW003 SCT004 BKN005 12/11 Q1001 RMK 1ST003 3ST004 5ST005 A2957
RJCC 210839Z 14009KT 5000 -SHRA BR FEW003 SCT004 BKN005 12/11 Q1001 RMK 1ST003 3ST004 5ST005 A2956
RJCC 210830Z 14009KT 4000 SHRA BR FEW003 SCT004 BKN005 12/11 Q1001 RMK 1ST003 3ST004 5ST005 A2956
RJCC 210800Z 16012KT 3500 SHRA BR FEW003 SCT004 BKN005 12/11 Q1001 RMK 1ST003 3ST004 5ST005 A2957
RJCC 210742Z 17015KT 4000 SHRA BR FEW003 BKN008 BKN040 12/11 Q1001 RMK 1ST003 5ST008 7CU040 A2956
RJCC 210730Z 18014KT 160V220 3000 SHRA BR FEW003 BKN005 BKN008 12/11 Q1001 RMK 1ST003 5ST005 6ST008 A2956
RJCC 210700Z 17017KT 2500 SHRA BR FEW002 SCT004 BKN005 12/12 Q1001 RMK 1ST002 4ST004 7ST005 A2957
RJCC 210630Z 15020KT 3500 SHRA BR FEW002 BKN004 BKN005 13/12 Q1000 RMK 1ST002 5ST004 7ST005 A2956
RJCC 210616Z 15020KT 3500 SHRA BR FEW002 SCT003 BKN004 12/12 Q1001 RMK 1ST002 4ST003 7ST004 A2956
RJCC 210608Z 15020KT 4500 -SHRA BR FEW002 BKN003 BKN004 12/12 Q1000 RMK 1ST002 5ST003 7ST004 A2956
RJCC 210600Z 15020KT 8000 -SHRA FEW002 SCT003 BKN004 12/12 Q1000 RMK 1ST002 3ST003 7ST004 A2956
RJCC 210530Z 15022KT 6000 -SHRA FEW003 BKN004 13/12 Q1000 RMK 2ST003 7ST004 A2955
RJCC 210523Z 15021G31KT 8000 -SHRA FEW003 BKN004 13/12 Q1000 RMK 2ST003 7ST004 A2955
RJCC 210500Z 16020KT 6000 -SHRA FEW003 BKN004 BKN005 12/12 Q1000 RMK 2ST003 5ST004 7ST005 A2955
RJCC 210439Z 16020G30KT 8000 -SHRA FEW003 BKN004 BKN005 12/11 Q1001 RMK 2ST003 5ST004 7ST005 A2956
RJCC 210430Z 16019KT 6000 -SHRA FEW003 BKN004 BKN005 12/12 Q1001 RMK 1ST003 5ST004 7ST005 A2956
RJCC 210400Z 17017KT 6000 -SHRA FEW003 SCT004 BKN005 12/12 Q1001 RMK 1ST003 3ST004 7ST005 A2956
RJCC 210343Z 18015KT 8000 -SHRA FEW003 SCT004 BKN005 12/11 Q1001 RMK 1ST003 3ST004 7ST005 A2957
RJCC 210330Z 18014KT 7000 SHRA FEW003 BKN004 BKN005 12/11 Q1001 RMK 1ST003 5ST004 7ST005 A2958
RJCC 210316Z 18015KT 5000 SHRA BR FEW003 BKN004 BKN005 12/11 Q1001 RMK 1ST003 5ST004 7ST005 A2958
RJCC 210300Z 19015KT 3500 R19R/P2000N R19L/P2000N SHRA BR FEW003 BKN004 BKN005 12/11 Q1002
RJCC 210234Z 17019G29KT 4000 SHRA BR FEW003 BKN004 BKN005 12/11 Q1002 RMK 1ST003 5ST004 7ST005 A2959
RJCC 210230Z 17020KT 4000 SHRA BR FEW003 BKN004 BKN005 12/11 Q1002 RMK 1ST003 5ST004 7ST005 A2959
RJCC 210200Z 16021KT 4500 SHRA BR FEW003 BKN004 BKN005 12/11 Q1002 RMK 1ST003 5ST004 7ST005 A2959
RJCC 210130Z 15022KT 4900 SHRA BR FEW003 BKN004 BKN005 12/11 Q1002 RMK 1ST003 5ST004 7ST005 A2960
RJCC 210100Z 15022G35KT 5000 -SHRA BR FEW003 BKN004 BKN005 12/12 Q1002 RMK 1ST003 5ST004 7ST005 A2961
RJCC 210030Z 16024G35KT 4500 SHRA BR FEW003 BKN004 BKN005 12/11 Q1002 WS R19L RMK 1ST003 5ST004 7ST005 A2961
RJCC 210014Z 16023G33KT 4900 SHRA BR FEW003 BKN004 BKN005 12/12 Q1003 RMK 1ST003 5ST004 7ST005 A2962
RJCC 210008Z 16023G33KT 6000 -SHRA FEW003 BKN004 BKN005 12/12 Q1003 RMK 1ST003 5ST004 7ST005 A2962
RJCC 210000Z 15023KT 7000 -SHRA FEW003 BKN004 BKN005 13/12 Q1003 RMK 1ST003 5ST004 7ST005 A2962
RJCC 202330Z 15022KT 7000 -SHRA FEW003 BKN004 BKN005 12/12 Q1003 RMK 1ST003 5ST004 7ST005 A2963
RJCC 202321Z 15023G33KT 5000 -SHRA BR FEW003 BKN004 BKN005 12/12 Q1003 RMK 1ST003 5ST004 7ST005 A2964
RJCC 202301Z 15020G32KT 4000 SHRA BR FEW003 BKN004 BKN005 12/11 Q1003 RMK 1ST003 5ST004 7ST005 A2964
RJCC 202300Z 15020KT 4000 SHRA BR FEW003 BKN004 BKN005 12/11 Q1003 RMK 1ST003 5ST004 7ST005 A2964
RJCC 202249Z 15022KT 4000 SHRA BR FEW003 BKN004 BKN005 12/11 Q1004 RMK 1ST003 5ST004 7ST005 A2965
RJCC 202230Z 15025G36KT 4500 -SHRA BR FEW003 BKN005 BKN006 12/11 Q1004 RMK 1ST003 5ST005 7ST006 A2966
RJCC 202200Z 15021G32KT 7000 -SHRA FEW004 BKN006 13/11 Q1004 RMK 1ST004 7ST006 A2966
RJCC 202133Z 16020G31KT 8000 FEW004 BKN006 13/11 Q1004 RMK 1ST004 7ST006 A2967
RJCC 202130Z 16020KT 8000 FEW004 BKN006 13/11 Q1004 RMK 1ST004 7ST006 A2967
RJCC 202104Z 16018G31KT 8000 FEW004 BKN007 13/12 Q1005 RMK 1ST004 7ST007 A2969
RJCC 202100Z 16017KT 8000 FEW005 BKN008 14/12 Q1005 RMK 1ST005 7ST008 A2969
RJCC 202030Z 15020G31KT 8000 FEW005 BKN008 13/12 Q1005 RMK 1ST005 7ST008 A2969
RJCC 202000Z 15027G39KT 8000 FEW005 BKN008 14/12 Q1005 RMK 1ST005 7ST008 A2969
RJCC 201930Z 16025KT 9999 FEW005 BKN008 14/12 Q1005 RMK 1ST005 7ST008 A2969
RJCC 201900Z 15024G36KT 9999 FEW006 BKN009 14/12 Q1005 RMK 1ST006 7ST009 A2970
RJCC 201830Z 16027G39KT 9999 FEW006 BKN009 14/11 Q1005 RMK 1ST006 7ST009 A2970
RJCC 201800Z 15028KT 9999 FEW006 BKN009 14/12 Q1006 RMK 1ST006 7ST009 A2971
RJCC 201730Z 15027G38KT 9999 FEW006 BKN009 14/11 Q1006 RMK 1ST006 7ST009 A2971
RJCC 201700Z 15027KT 9999 FEW006 BKN009 14/11 Q1006 RMK 1ST006 7ST009 A2972
RJCC 201630Z 15025KT 9999 FEW006 BKN009 14/11 Q1007 RMK 1ST006 7ST009 A2974
RJCC 201600Z 15026KT 8000 FEW006 BKN010 14/11 Q1007 RMK 1ST006 7ST010 A2974
RJCC 201530Z 15024G37KT 9999 FEW008 BKN010 14/11 Q1007 RMK 1ST008 7ST010 A2975
RJCC 201500Z 15024KT 9999 FEW008 BKN012 14/11 Q1008 RMK 1ST008 7ST012 A2977
RJCC 201430Z 15023G34KT 8000 FEW010 BKN012 14/11 Q1008 RMK 1ST010 7ST012 A2978
RJCC 201400Z 15023KT 9999 FEW010 BKN012 14/11 Q1008 RMK 1ST010 7ST012 A2979
RJCC 201330Z 14020G30KT 9999 FEW010 BKN015 15/11 Q1008 RMK 1ST010 7ST015 A2979
RJCC 201300Z 14022G32KT 9999 FEW010 BKN016 15/11 Q1009 RMK 1ST010 7ST016 A2980
RJCC 201230Z 14022G33KT 9999 FEW010 BKN016 15/10 Q1009 RMK 1ST010 7ST016 A2982
RJCC 201200Z 14023G33KT 9999 FEW010 BKN016 15/10 Q1009 RMK 1ST010 7ST016 A2982
RJCC 201130Z 15021G31KT 120V180 9999 FEW010 BKN016 15/11 Q1010 RMK 1ST010 7ST016 A2984
RJCC 201115Z 15021G31KT 9999 FEW010 BKN016 15/11 Q1010 RMK 1ST010 7ST016 A2984
RJCC 201100Z 15019KT 9999 FEW010 BKN018 15/11 Q1011
RJCC 201030Z 15019G29KT 9999 FEW010 BKN018 16/11 Q1011 RMK 1ST010 7ST018 A2986
RJCC 201010Z 16018G31KT 8000 FEW010 BKN018 16/11 Q1011 RMK 1ST010 7ST018 A2986
RJCC 201000Z 16018KT 8000 FEW010 BKN018 16/10 Q1011 RMK 1ST010 7ST018 A2986
RJCC 200930Z 15019KT 9999 FEW010 BKN018 16/11 Q1011 RMK 1ST010 7ST018 A2985
RJCC 200900Z 15020KT 9999 FEW010 BKN020 16/10 Q1011 RMK 2ST010 7CU020 A2986
RJCC 200830Z 15023G33KT 9999 FEW010 SCT025 BKN/// 17/10 Q1011
RJCC 200800Z 15023G34KT 9999 FEW010 BKN/// 17/10 Q1011 RMK 2ST010 A2985
RJCC 200730Z 15024G35KT 9999 FEW020 BKN/// 17/11 Q1010 RMK 2CU020 A2985
RJCC 200700Z 15025G35KT 9999 FEW020 BKN/// 18/11 Q1011
RJCC 200630Z 15025G35KT 9999 FEW020 BKN/// 18/10 Q1011 RMK 1CU020 A2986
RJCC 200600Z 14025G37KT 9999 FEW020 BKN/// 19/10 Q1011 RMK 1CU020 A2987
RJCC 200530Z 15028G38KT 9999 FEW020 BKN/// 18/10 Q1012
RJCC 200500Z 15027G38KT 9999 FEW020 BKN/// 19/10 Q1012 RMK 1CU020 A2989
RJCC 200430Z 16025G36KT 9999 FEW020 BKN/// 19/10 Q1012
RJCC 200400Z 16028G41KT 9999 FEW020 BKN/// 20/10 Q1012 WS R19L
RJCC 200330Z 15026G37KT 9999 FEW010 BKN/// 21/11 Q1012
RJCC 200300Z 15026G36KT 9999 FEW010 BKN/// 20/10 Q1012
RJCC 200233Z 15024G34KT 9999 FEW010 BKN/// 20/10 Q1013 RMK 1ST010 A2993
RJCC 200230Z 15024KT 9999 FEW010 BKN/// 20/10 Q1013
RJCC 200211Z 15024G35KT 9999 FEW010 BKN/// 19/10 Q1014 RMK 1ST010 A2995
RJCC 200200Z 15024KT 9999 FEW010 BKN/// 20/10 Q1014
RJCC 200132Z 15021G31KT 9999 FEW010 BKN/// 19/10 Q1014 RMK 1ST010 A2996
RJCC 200130Z 15022KT 9999 FEW010 BKN/// 19/10 Q1014
RJCC 200100Z 16021KT 9999 FEW010 BKN/// 19/10 Q1014 RMK 1ST010 A2997
RJCC 200030Z 15022KT 9999 FEW010 BKN/// 19/10 Q1015
RJCC 200000Z 15020KT 9999 FEW010 BKN/// 19/10 Q1014 RMK 1ST010 A2996
RJCC 192330Z 15019G29KT 9999 FEW010 BKN/// 19/10 Q1014 WS R19L RMK 1ST010 A2996
RJCC 192315Z 14020G30KT 9999 FEW010 BKN/// 18/10 Q1014 RMK 1ST010 A2996
RJCC 192300Z 15020KT 9999 FEW010 BKN/// 19/10 Q1014 RMK 1ST010 A2996
RJCC 192230Z 15020KT 9999 FEW010 BKN/// 17/10 Q1014
RJCC 192200Z 14018KT 9999 FEW010 BKN/// 16/10 Q1015 RMK 1ST010 A2998
RJCC 192138Z 15018G28KT 9999 FEW010 BKN/// 16/10 Q1015 RMK 1ST010 A2999
RJCC 192130Z 15018KT 9999 FEW010 BKN/// 16/10 Q1015
RJCC 192100Z 15017KT 9999 FEW010 SCT/// 15/11 Q1016
RJCC 192048Z 15015G25KT 9999 FEW010 SCT/// 14/11 Q1016 RMK 1ST010 A3000
RJCC 192030Z 15017KT 9999 FEW010 SCT/// 14/11 Q1016
RJCC 192000Z 14016KT 9999 FEW010 SCT/// 14/11 Q1016
RJCC 191930Z 15014KT 9999 FEW010 SCT/// 13/11 Q1016
RJCC 191900Z 16011KT 9999 FEW010 SCT/// 13/11 Q1016 RMK 1ST010 A3002
RJCC 191830Z 16012KT 9999 FEW010 14/11 Q1016 RMK 1ST010 A3003
RJCC 191800Z 15011KT 9999 FEW010 14/11 Q1016 RMK 1ST010 A3003
RJCC 191730Z 16009KT 9999 FEW010 13/11 Q1017 RMK 1ST010 A3003
RJCC 191700Z 16011KT 9999 FEW010 13/10 Q1017 RMK 1ST010 A3004
RJCC 191630Z 19008KT 9999 FEW010 SCT020 13/10 Q1017 RMK 1ST010 3CU020 A3005
RJCC 191600Z 18006KT 9999 FEW015 13/10 Q1017 RMK 1ST015 A3006
RJCC 191530Z 15009KT 9999 FEW015 14/10 Q1018 RMK 1ST015 A3007
RJCC 191500Z 15010KT 9999 FEW010 SCT025 14/10 Q1019 RMK 1ST010 3CU025 A3009
RJCC 191430Z 16008KT 9999 FEW010 BKN025 13/10 Q1019 RMK 1ST010 5CU025 A3010
RJCC 191400Z 19006KT 9999 FEW010 SCT025 13/10 Q1020 RMK 1ST010 3CU025 A3012
RJCC 191330Z 18008KT 9999 FEW010 13/10 Q1020 RMK 1ST010 A3012
RJCC 191300Z 17011KT 9999 FEW010 13/10 Q1019 RMK 1ST010 A3011
RJCC 191230Z 17012KT 9999 FEW010 SCT/// 13/10 Q1019
RJCC 191200Z 17010KT 9999 FEW010 SCT/// 13/10 Q1019 RMK 1ST010 A3012
RJCC 191130Z 21008KT 9999 FEW010 SCT/// 13/10 Q1020
RJCC 191100Z 19011KT 9999 FEW010 SCT/// 13/10 Q1019 RMK 1ST010 A3011
RJCC 191030Z 18012KT 9999 FEW010 SCT/// 12/10 Q1019 RMK 1ST010 A3011
RJCC 191000Z 17014KT 9999 FEW015 12/09 Q1019 RMK 1ST015 A3011
RJCC 190930Z 18015KT 9999 FEW015 SCT/// 12/09 Q1019
RJCC 190900Z 17013KT 9999 FEW015 SCT/// 12/09 Q1020 RMK 1ST015 A3012
RJCC 190830Z 18015KT 9999 FEW015 BKN/// 13/09 Q1020
RJCC 190800Z 18017KT 9999 FEW015 BKN/// 14/09 Q1020
RJCC 190730Z 17016KT 9999 FEW030 BKN/// 15/10 Q1019
RJCC 190700Z 18018KT 9999 FEW030 BKN/// 16/10 Q1020
RJCC 190630Z 17016KT 9999 FEW030 BKN/// 17/10 Q1019
RJCC 190600Z 16015KT 9999 FEW030 BKN/// 18/10 Q1019
RJCC 190530Z 18014KT 9999 FEW030 BKN/// 18/10 Q1020 RMK 1CU030 A3012
RJCC 190500Z 17014KT 9999 FEW030 BKN/// 17/10 Q1020
RJCC 190430Z 18016KT 9999 FEW030 BKN/// 17/10 Q1020 RMK 1CU030 A3013
RJCC 190400Z 17017KT 9999 FEW025 BKN/// 18/10 Q1020
RJCC 190330Z 17016KT 9999 FEW025 BKN/// 18/10 Q1020
RJCC 190300Z 17017KT 9999 FEW025 BKN/// 18/10 Q1020
RJCC 190230Z 17018KT 9999 FEW025 BKN/// 18/10 Q1020
RJCC 190200Z 17016KT 9999 FEW025 BKN/// 18/10 Q1021
RJCC 190130Z 17017KT 9999 FEW015 BKN/// 18/10 Q1021
RJCC 190100Z 18015KT 9999 FEW010 BKN/// 18/10 Q1021
RJCC 190030Z 18015KT 9999 FEW010 BKN/// 17/10 Q1021
RJCC 190000Z 18016KT 9999 FEW010 BKN/// 17/10 Q1021